St. Moritz, Switzerland
Current Conditions -  °F | °C
As of 7:50 AM on Saturday 25 Oct 2014 (Local Time) from LSZS Reporting Station
Broken Clouds Broken Clouds  
Wind Chill: 25°   Ceiling: 7200
Heat Index: 25°   Visibility: 6mi
Dew Point: 25°   Wind: 1mph
Humidity: 100%   Direction: 220°SW
Pressure: 30.15"   Gusts: NA
Location:  46.5°N, 9.84°E
Report Text: LSZS 250550Z 22001KT 9999 BKN072 M04/M04 Q1021
Loading
Personal Weather Stations






























Interactive Weather Map
Tropical Storm Tracking
New forecast layout! Learn more

10-Day Weather Forecast

Advertisements
Track Severe Weather on mobile